Calgary Springbank Airport
CYBW : now visible

Airfield :











YOU CAN JOIN US ON...

 
LOGIN :

Register | Disclaimer

   EN    FR    IT 

 









Legend :    VFR   Marginal VFR   IFR   Intensive IFR   Very Intensive IFR
Visi :
Ceiling :
>= 8 km
>= 3000ft
5 to 8 km
1000 to 3000 ft
1500m to 5 km
500 to 1000 ft
800 to 1500m
200 to 500 ft
< 800m
< 200 ft
Symbols :   Thunderstorms  Fog  Heavy snow  Heavy precipitations  Wind > 20 kt






- Airport Elevation : 3937 ft
- IATA code : YBW


CYBW - Calgary Springbank

CURRENT METAR :
  • 291500Z AUTO VRB02KT 9SM FEW230 SCT250 M10/M13 A2988 RMK SLP188

EXPIRED METARs :
  • 291400Z AUTO 25002KT 9SM CLR M12/M15 A2992 RMK PRESFR SLP204
  • 291300Z AUTO 35003KT 280V020 9SM CLR M11/M14 A2994 RMK SLP206

TAF TAF CYBW
Valid from the 29 at 13:00 until the 30 at 01:00 UTC


291240Z 2913/3001 VRB03KT P6SM SKC
BECMG 2914/2916 22008KT
FM292000 22008KT P6SM BKN080 OVC200
FM300000 26008KT P6SM FEW060 RMK FCST BASED ON AUTO OBS. NXT FCST BY 291800Z



MET'MAP, your aeronautical weather chart ! - Copyright ORBIFLY December 2007 - Disclaimer

ORBIFLY MET'MAP TEAM :

Programming & Development : Alexandra Zaïnal
Concept & original design : Baudouin d'Aumeries
Assistance for programming : Marc-Olivier Méhu
Technical & hardware support : Manuel Goepfert

Contact : metmap@orbifly.com




SOURCES & CREDITS :

   NOAA       Earth
Advisory